sensor_id;sensor_type;location;lat;lon;timestamp;P1;durP1;ratioP1;P2;durP2;ratioP2
28760;SDS011;15917;50.014;8.352;2023-07-28T00:00:06;3.80;;;2.30;;
28760;SDS011;15917;50.014;8.352;2023-07-28T00:02:35;3.00;;;2.10;;
28760;SDS011;15917;50.014;8.352;2023-07-28T00:05:01;3.92;;;2.50;;
28760;SDS011;15917;50.014;8.352;2023-07-28T00:07:26;3.97;;;2.47;;
28760;SDS011;15917;50.014;8.352;2023-07-28T00:09:52;4.38;;;2.58;;
28760;SDS011;15917;50.014;8.352;2023-07-28T00:12:17;4.32;;;2.45;;
28760;SDS011;15917;50.014;8.352;2023-07-28T00:14:43;6.05;;;2.50;;
28760;SDS011;15917;50.014;8.352;2023-07-28T00:17:08;7.60;;;2.58;;
28760;SDS011;15917;50.014;8.352;2023-07-28T00:19:34;5.90;;;2.58;;
28760;SDS011;15917;50.014;8.352;2023-07-28T00:22:00;11.27;;;3.00;;
28760;SDS011;15917;50.014;8.352;2023-07-28T00:24:25;7.57;;;2.80;;
28760;SDS011;15917;50.014;8.352;2023-07-28T00:26:51;7.93;;;2.50;;
28760;SDS011;15917;50.014;8.352;2023-07-28T00:29:16;9.52;;;2.92;;
28760;SDS011;15917;50.014;8.352;2023-07-28T00:31:42;6.30;;;2.72;;
28760;SDS011;15917;50.014;8.352;2023-07-28T00:34:07;5.07;;;3.20;;
28760;SDS011;15917;50.014;8.352;2023-07-28T00:36:33;9.38;;;3.22;;
28760;SDS011;15917;50.014;8.352;2023-07-28T00:38:59;4.82;;;3.28;;
28760;SDS011;15917;50.014;8.352;2023-07-28T00:41:24;5.40;;;3.05;;
28760;SDS011;15917;50.014;8.352;2023-07-28T00:43:50;6.45;;;3.17;;
28760;SDS011;15917;50.014;8.352;2023-07-28T00:46:16;9.02;;;2.88;;
28760;SDS011;15917;50.014;8.352;2023-07-28T00:48:42;6.30;;;3.47;;
28760;SDS011;15917;50.014;8.352;2023-07-28T00:51:08;5.72;;;3.42;;
28760;SDS011;15917;50.014;8.352;2023-07-28T00:53:35;4.80;;;3.97;;
28760;SDS011;15917;50.014;8.352;2023-07-28T00:56:01;8.88;;;3.67;;
28760;SDS011;15917;50.014;8.352;2023-07-28T00:58:27;5.78;;;3.13;;
28760;SDS011;15917;50.014;8.352;2023-07-28T01:00:53;9.40;;;3.83;;
28760;SDS011;15917;50.014;8.352;2023-07-28T01:03:19;6.00;;;2.95;;
28760;SDS011;15917;50.014;8.352;2023-07-28T01:08:58;5.18;;;2.83;;
28760;SDS011;15917;50.014;8.352;2023-07-28T01:11:28;10.57;;;3.17;;
28760;SDS011;15917;50.014;8.352;2023-07-28T01:13:55;5.07;;;3.10;;
28760;SDS011;15917;50.014;8.352;2023-07-28T01:16:20;6.38;;;3.13;;
28760;SDS011;15917;50.014;8.352;2023-07-28T01:18:46;7.95;;;3.22;;
28760;SDS011;15917;50.014;8.352;2023-07-28T01:21:22;6.95;;;3.40;;
28760;SDS011;15917;50.014;8.352;2023-07-28T01:23:53;5.40;;;3.42;;
28760;SDS011;15917;50.014;8.352;2023-07-28T01:26:39;4.68;;;2.67;;
28760;SDS011;15917;50.014;8.352;2023-07-28T01:29:06;5.28;;;2.55;;
28760;SDS011;15917;50.014;8.352;2023-07-28T01:31:32;8.98;;;3.13;;
28760;SDS011;15917;50.014;8.352;2023-07-28T01:33:58;3.88;;;2.47;;
28760;SDS011;15917;50.014;8.352;2023-07-28T01:36:23;5.32;;;2.90;;
28760;SDS011;15917;50.014;8.352;2023-07-28T01:38:49;8.77;;;3.00;;
28760;SDS011;15917;50.014;8.352;2023-07-28T01:41:15;5.30;;;2.97;;
28760;SDS011;15917;50.014;8.352;2023-07-28T01:43:40;6.07;;;3.30;;
28760;SDS011;15917;50.014;8.352;2023-07-28T01:46:08;6.18;;;3.08;;
28760;SDS011;15917;50.014;8.352;2023-07-28T01:48:33;9.48;;;3.35;;
28760;SDS011;15917;50.014;8.352;2023-07-28T01:50:59;4.53;;;3.28;;
28760;SDS011;15917;50.014;8.352;2023-07-28T01:53:25;5.45;;;3.17;;
28760;SDS011;15917;50.014;8.352;2023-07-28T01:55:50;5.93;;;3.35;;
28760;SDS011;15917;50.014;8.352;2023-07-28T01:58:16;6.32;;;3.17;;
28760;SDS011;15917;50.014;8.352;2023-07-28T02:00:42;9.55;;;3.72;;
28760;SDS011;15917;50.014;8.352;2023-07-28T02:03:07;6.60;;;3.30;;
28760;SDS011;15917;50.014;8.352;2023-07-28T02:05:33;5.82;;;3.05;;
28760;SDS011;15917;50.014;8.352;2023-07-28T02:07:59;4.75;;;2.92;;
28760;SDS011;15917;50.014;8.352;2023-07-28T02:10:26;3.88;;;3.10;;
28760;SDS011;15917;50.014;8.352;2023-07-28T02:12:52;7.78;;;3.20;;
28760;SDS011;15917;50.014;8.352;2023-07-28T02:15:18;6.25;;;3.25;;
28760;SDS011;15917;50.014;8.352;2023-07-28T02:17:43;4.95;;;3.28;;
28760;SDS011;15917;50.014;8.352;2023-07-28T02:20:09;3.53;;;2.88;;
28760;SDS011;15917;50.014;8.352;2023-07-28T02:22:42;5.07;;;3.05;;
28760;SDS011;15917;50.014;8.352;2023-07-28T02:25:08;10.77;;;3.30;;
28760;SDS011;15917;50.014;8.352;2023-07-28T02:27:34;7.70;;;3.60;;
28760;SDS011;15917;50.014;8.352;2023-07-28T02:30:01;9.88;;;3.50;;
28760;SDS011;15917;50.014;8.352;2023-07-28T02:32:27;10.50;;;3.17;;
28760;SDS011;15917;50.014;8.352;2023-07-28T02:34:54;7.05;;;3.55;;
28760;SDS011;15917;50.014;8.352;2023-07-28T02:37:20;8.90;;;3.40;;
28760;SDS011;15917;50.014;8.352;2023-07-28T02:39:45;12.80;;;3.40;;
28760;SDS011;15917;50.014;8.352;2023-07-28T02:42:11;22.23;;;3.78;;
28760;SDS011;15917;50.014;8.352;2023-07-28T02:44:37;5.22;;;3.30;;
28760;SDS011;15917;50.014;8.352;2023-07-28T02:47:03;8.68;;;3.40;;
28760;SDS011;15917;50.014;8.352;2023-07-28T02:49:29;7.10;;;3.83;;
28760;SDS011;15917;50.014;8.352;2023-07-28T02:51:55;22.63;;;4.15;;
28760;SDS011;15917;50.014;8.352;2023-07-28T02:54:20;6.10;;;3.42;;
28760;SDS011;15917;50.014;8.352;2023-07-28T02:56:49;8.35;;;3.58;;
28760;SDS011;15917;50.014;8.352;2023-07-28T02:59:15;7.85;;;3.72;;
28760;SDS011;15917;50.014;8.352;2023-07-28T03:01:40;9.27;;;3.40;;
28760;SDS011;15917;50.014;8.352;2023-07-28T03:04:06;9.10;;;3.58;;
28760;SDS011;15917;50.014;8.352;2023-07-28T03:06:52;5.97;;;3.35;;
28760;SDS011;15917;50.014;8.352;2023-07-28T03:09:18;8.95;;;3.35;;
28760;SDS011;15917;50.014;8.352;2023-07-28T03:11:51;8.75;;;3.20;;
28760;SDS011;15917;50.014;8.352;2023-07-28T03:14:17;9.23;;;3.95;;
28760;SDS011;15917;50.014;8.352;2023-07-28T03:16:43;6.85;;;3.22;;
28760;SDS011;15917;50.014;8.352;2023-07-28T03:19:09;8.40;;;3.25;;
28760;SDS011;15917;50.014;8.352;2023-07-28T03:21:34;6.72;;;3.75;;
28760;SDS011;15917;50.014;8.352;2023-07-28T03:24:00;13.30;;;3.90;;
28760;SDS011;15917;50.014;8.352;2023-07-28T03:26:26;5.57;;;3.10;;
28760;SDS011;15917;50.014;8.352;2023-07-28T03:28:51;5.82;;;3.17;;
28760;SDS011;15917;50.014;8.352;2023-07-28T03:31:17;8.70;;;3.50;;
28760;SDS011;15917;50.014;8.352;2023-07-28T03:33:43;5.75;;;3.22;;
28760;SDS011;15917;50.014;8.352;2023-07-28T03:36:08;6.63;;;3.03;;
28760;SDS011;15917;50.014;8.352;2023-07-28T03:38:35;7.72;;;3.40;;
28760;SDS011;15917;50.014;8.352;2023-07-28T03:41:03;16.90;;;3.40;;
28760;SDS011;15917;50.014;8.352;2023-07-28T03:43:28;10.30;;;3.03;;
28760;SDS011;15917;50.014;8.352;2023-07-28T03:45:54;4.78;;;3.00;;
28760;SDS011;15917;50.014;8.352;2023-07-28T03:48:20;6.28;;;3.13;;
28760;SDS011;15917;50.014;8.352;2023-07-28T03:50:45;5.70;;;3.10;;
28760;SDS011;15917;50.014;8.352;2023-07-28T03:53:11;4.55;;;2.95;;
28760;SDS011;15917;50.014;8.352;2023-07-28T03:55:37;5.55;;;2.63;;
28760;SDS011;15917;50.014;8.352;2023-07-28T03:58:02;7.30;;;3.22;;
28760;SDS011;15917;50.014;8.352;2023-07-28T04:00:29;5.80;;;2.85;;
28760;SDS011;15917;50.014;8.352;2023-07-28T04:02:54;9.50;;;3.10;;
28760;SDS011;15917;50.014;8.352;2023-07-28T04:05:20;3.17;;;2.35;;
28760;SDS011;15917;50.014;8.352;2023-07-28T04:07:46;5.53;;;2.50;;
28760;SDS011;15917;50.014;8.352;2023-07-28T04:10:11;3.90;;;2.20;;
28760;SDS011;15917;50.014;8.352;2023-07-28T04:12:37;4.90;;;2.45;;
28760;SDS011;15917;50.014;8.352;2023-07-28T04:15:02;5.38;;;2.78;;
28760;SDS011;15917;50.014;8.352;2023-07-28T04:17:28;3.83;;;2.45;;
28760;SDS011;15917;50.014;8.352;2023-07-28T04:19:54;5.28;;;2.55;;
28760;SDS011;15917;50.014;8.352;2023-07-28T04:22:20;6.32;;;3.22;;
28760;SDS011;15917;50.014;8.352;2023-07-28T04:24:47;4.30;;;2.35;;
28760;SDS011;15917;50.014;8.352;2023-07-28T04:27:14;7.22;;;3.22;;
28760;SDS011;15917;50.014;8.352;2023-07-28T04:29:40;6.72;;;2.90;;
28760;SDS011;15917;50.014;8.352;2023-07-28T04:32:08;7.13;;;2.50;;
28760;SDS011;15917;50.014;8.352;2023-07-28T04:34:34;9.50;;;2.90;;
28760;SDS011;15917;50.014;8.352;2023-07-28T04:37:10;10.50;;;2.95;;
28760;SDS011;15917;50.014;8.352;2023-07-28T04:39:54;10.35;;;2.58;;
28760;SDS011;15917;50.014;8.352;2023-07-28T04:42:19;3.92;;;2.28;;
28760;SDS011;15917;50.014;8.352;2023-07-28T04:44:46;4.93;;;2.70;;
28760;SDS011;15917;50.014;8.352;2023-07-28T04:47:12;7.03;;;2.95;;
28760;SDS011;15917;50.014;8.352;2023-07-28T04:49:38;6.32;;;2.75;;
28760;SDS011;15917;50.014;8.352;2023-07-28T04:52:07;5.82;;;2.92;;
28760;SDS011;15917;50.014;8.352;2023-07-28T04:54:45;14.10;;;2.70;;
28760;SDS011;15917;50.014;8.352;2023-07-28T04:57:11;10.25;;;3.47;;
28760;SDS011;15917;50.014;8.352;2023-07-28T04:59:38;4.80;;;2.85;;
28760;SDS011;15917;50.014;8.352;2023-07-28T05:02:03;8.25;;;3.22;;
28760;SDS011;15917;50.014;8.352;2023-07-28T05:04:29;6.60;;;3.05;;
28760;SDS011;15917;50.014;8.352;2023-07-28T05:06:55;5.28;;;2.90;;
28760;SDS011;15917;50.014;8.352;2023-07-28T05:09:21;7.85;;;2.70;;
28760;SDS011;15917;50.014;8.352;2023-07-28T05:11:46;6.10;;;2.70;;
28760;SDS011;15917;50.014;8.352;2023-07-28T05:14:12;4.28;;;2.30;;
28760;SDS011;15917;50.014;8.352;2023-07-28T05:16:38;8.20;;;2.13;;
28760;SDS011;15917;50.014;8.352;2023-07-28T05:19:09;5.78;;;2.25;;
28760;SDS011;15917;50.014;8.352;2023-07-28T05:21:50;4.68;;;2.05;;
28760;SDS011;15917;50.014;8.352;2023-07-28T05:24:18;3.83;;;1.40;;
28760;SDS011;15917;50.014;8.352;2023-07-28T05:26:44;7.60;;;1.60;;
28760;SDS011;15917;50.014;8.352;2023-07-28T05:29:10;2.80;;;1.58;;
28760;SDS011;15917;50.014;8.352;2023-07-28T05:31:36;3.78;;;1.92;;
28760;SDS011;15917;50.014;8.352;2023-07-28T05:34:04;2.63;;;1.65;;
28760;SDS011;15917;50.014;8.352;2023-07-28T05:36:30;4.28;;;1.70;;
28760;SDS011;15917;50.014;8.352;2023-07-28T05:38:59;2.55;;;1.42;;
28760;SDS011;15917;50.014;8.352;2023-07-28T05:41:34;2.90;;;1.77;;
28760;SDS011;15917;50.014;8.352;2023-07-28T05:43:59;1.65;;;1.40;;
28760;SDS011;15917;50.014;8.352;2023-07-28T05:46:26;6.95;;;1.85;;
28760;SDS011;15917;50.014;8.352;2023-07-28T05:48:53;2.63;;;1.25;;
28760;SDS011;15917;50.014;8.352;2023-07-28T05:53:46;2.95;;;1.77;;
28760;SDS011;15917;50.014;8.352;2023-07-28T05:56:12;2.95;;;1.40;;
28760;SDS011;15917;50.014;8.352;2023-07-28T05:58:38;7.88;;;1.15;;
28760;SDS011;15917;50.014;8.352;2023-07-28T06:01:04;5.63;;;1.40;;
28760;SDS011;15917;50.014;8.352;2023-07-28T06:03:52;4.63;;;1.58;;
28760;SDS011;15917;50.014;8.352;2023-07-28T06:06:23;3.75;;;1.52;;
28760;SDS011;15917;50.014;8.352;2023-07-28T06:08:50;3.17;;;1.30;;
28760;SDS011;15917;50.014;8.352;2023-07-28T06:11:16;2.03;;;1.40;;
28760;SDS011;15917;50.014;8.352;2023-07-28T06:13:41;3.10;;;1.65;;
28760;SDS011;15917;50.014;8.352;2023-07-28T06:16:07;2.15;;;1.20;;
28760;SDS011;15917;50.014;8.352;2023-07-28T06:18:32;5.10;;;1.17;;
28760;SDS011;15917;50.014;8.352;2023-07-28T06:21:06;5.65;;;1.90;;
28760;SDS011;15917;50.014;8.352;2023-07-28T06:23:32;1.70;;;1.05;;
28760;SDS011;15917;50.014;8.352;2023-07-28T06:25:57;1.88;;;1.15;;
28760;SDS011;15917;50.014;8.352;2023-07-28T06:28:23;2.15;;;0.90;;
28760;SDS011;15917;50.014;8.352;2023-07-28T06:30:55;1.85;;;1.17;;
28760;SDS011;15917;50.014;8.352;2023-07-28T06:33:27;1.60;;;0.70;;
28760;SDS011;15917;50.014;8.352;2023-07-28T06:35:54;4.35;;;0.93;;
28760;SDS011;15917;50.014;8.352;2023-07-28T06:38:19;5.43;;;1.08;;
28760;SDS011;15917;50.014;8.352;2023-07-28T06:40:45;1.85;;;0.98;;
28760;SDS011;15917;50.014;8.352;2023-07-28T06:43:11;1.02;;;0.85;;
28760;SDS011;15917;50.014;8.352;2023-07-28T06:45:37;6.65;;;1.38;;
28760;SDS011;15917;50.014;8.352;2023-07-28T06:48:03;1.52;;;0.70;;
28760;SDS011;15917;50.014;8.352;2023-07-28T06:50:29;3.33;;;0.70;;
28760;SDS011;15917;50.014;8.352;2023-07-28T06:52:54;1.33;;;0.50;;
28760;SDS011;15917;50.014;8.352;2023-07-28T06:55:23;5.93;;;1.00;;
28760;SDS011;15917;50.014;8.352;2023-07-28T06:57:49;7.22;;;0.82;;
28760;SDS011;15917;50.014;8.352;2023-07-28T07:00:16;3.15;;;0.70;;
28760;SDS011;15917;50.014;8.352;2023-07-28T07:02:43;1.92;;;0.57;;
28760;SDS011;15917;50.014;8.352;2023-07-28T07:05:09;3.13;;;0.52;;
28760;SDS011;15917;50.014;8.352;2023-07-28T07:07:35;1.45;;;0.50;;
28760;SDS011;15917;50.014;8.352;2023-07-28T07:10:01;2.30;;;0.60;;
28760;SDS011;15917;50.014;8.352;2023-07-28T07:12:26;2.75;;;0.80;;
28760;SDS011;15917;50.014;8.352;2023-07-28T07:14:52;3.05;;;0.50;;
28760;SDS011;15917;50.014;8.352;2023-07-28T07:17:18;3.90;;;0.50;;
28760;SDS011;15917;50.014;8.352;2023-07-28T07:19:43;0.65;;;0.50;;
28760;SDS011;15917;50.014;8.352;2023-07-28T07:22:09;1.70;;;0.47;;
28760;SDS011;15917;50.014;8.352;2023-07-28T07:24:35;3.75;;;0.80;;
28760;SDS011;15917;50.014;8.352;2023-07-28T07:27:00;1.35;;;0.47;;
28760;SDS011;15917;50.014;8.352;2023-07-28T07:29:26;1.02;;;0.35;;
28760;SDS011;15917;50.014;8.352;2023-07-28T07:31:52;0.82;;;0.57;;
28760;SDS011;15917;50.014;8.352;2023-07-28T07:34:21;2.22;;;0.50;;
28760;SDS011;15917;50.014;8.352;2023-07-28T07:36:47;0.85;;;0.50;;
28760;SDS011;15917;50.014;8.352;2023-07-28T07:39:13;0.57;;;0.40;;
28760;SDS011;15917;50.014;8.352;2023-07-28T07:41:39;2.10;;;0.70;;
28760;SDS011;15917;50.014;8.352;2023-07-28T07:44:04;2.13;;;0.50;;
28760;SDS011;15917;50.014;8.352;2023-07-28T07:46:30;2.70;;;0.40;;
28760;SDS011;15917;50.014;8.352;2023-07-28T07:48:56;1.30;;;0.57;;
28760;SDS011;15917;50.014;8.352;2023-07-28T07:51:21;1.17;;;0.50;;
28760;SDS011;15917;50.014;8.352;2023-07-28T07:53:47;2.97;;;0.47;;
28760;SDS011;15917;50.014;8.352;2023-07-28T07:56:12;2.22;;;0.47;;
28760;SDS011;15917;50.014;8.352;2023-07-28T07:58:38;1.67;;;0.50;;
28760;SDS011;15917;50.014;8.352;2023-07-28T08:01:04;1.20;;;0.57;;
28760;SDS011;15917;50.014;8.352;2023-07-28T08:03:30;6.07;;;0.55;;
28760;SDS011;15917;50.014;8.352;2023-07-28T08:05:56;1.20;;;0.40;;
28760;SDS011;15917;50.014;8.352;2023-07-28T08:08:23;1.55;;;0.50;;
28760;SDS011;15917;50.014;8.352;2023-07-28T08:10:49;0.40;;;0.40;;
28760;SDS011;15917;50.014;8.352;2023-07-28T08:13:15;0.70;;;0.60;;
28760;SDS011;15917;50.014;8.352;2023-07-28T08:15:44;1.38;;;0.60;;
28760;SDS011;15917;50.014;8.352;2023-07-28T08:18:11;0.80;;;0.55;;
28760;SDS011;15917;50.014;8.352;2023-07-28T08:20:37;1.35;;;0.40;;
28760;SDS011;15917;50.014;8.352;2023-07-28T08:23:03;1.67;;;0.73;;
28760;SDS011;15917;50.014;8.352;2023-07-28T08:25:29;2.40;;;0.50;;
28760;SDS011;15917;50.014;8.352;2023-07-28T08:27:54;1.95;;;0.60;;
28760;SDS011;15917;50.014;8.352;2023-07-28T08:30:20;3.70;;;0.70;;
28760;SDS011;15917;50.014;8.352;2023-07-28T08:32:45;4.03;;;0.40;;
28760;SDS011;15917;50.014;8.352;2023-07-28T08:35:11;0.68;;;0.60;;
28760;SDS011;15917;50.014;8.352;2023-07-28T08:37:37;2.03;;;0.50;;
28760;SDS011;15917;50.014;8.352;2023-07-28T08:40:03;0.68;;;0.68;;
28760;SDS011;15917;50.014;8.352;2023-07-28T08:42:30;0.60;;;0.60;;
28760;SDS011;15917;50.014;8.352;2023-07-28T08:45:00;1.77;;;0.63;;
28760;SDS011;15917;50.014;8.352;2023-07-28T08:47:26;0.43;;;0.40;;
28760;SDS011;15917;50.014;8.352;2023-07-28T08:49:52;0.90;;;0.45;;
28760;SDS011;15917;50.014;8.352;2023-07-28T08:52:17;3.65;;;0.35;;
28760;SDS011;15917;50.014;8.352;2023-07-28T08:54:44;1.98;;;0.60;;
28760;SDS011;15917;50.014;8.352;2023-07-28T08:57:10;0.50;;;0.40;;
28760;SDS011;15917;50.014;8.352;2023-07-28T08:59:35;3.90;;;0.45;;
28760;SDS011;15917;50.014;8.352;2023-07-28T09:02:03;1.83;;;0.43;;
28760;SDS011;15917;50.014;8.352;2023-07-28T09:04:31;0.60;;;0.43;;
28760;SDS011;15917;50.014;8.352;2023-07-28T09:06:56;1.23;;;1.13;;
28760;SDS011;15917;50.014;8.352;2023-07-28T09:09:22;0.88;;;0.40;;
28760;SDS011;15917;50.014;8.352;2023-07-28T09:11:53;0.55;;;0.50;;
28760;SDS011;15917;50.014;8.352;2023-07-28T09:14:19;0.93;;;0.65;;
28760;SDS011;15917;50.014;8.352;2023-07-28T09:16:46;3.30;;;0.70;;
28760;SDS011;15917;50.014;8.352;2023-07-28T09:19:12;2.78;;;0.50;;
28760;SDS011;15917;50.014;8.352;2023-07-28T09:21:39;1.00;;;0.65;;
28760;SDS011;15917;50.014;8.352;2023-07-28T09:24:11;1.85;;;0.68;;
28760;SDS011;15917;50.014;8.352;2023-07-28T09:29:16;0.60;;;0.60;;
28760;SDS011;15917;50.014;8.352;2023-07-28T09:31:43;4.65;;;0.70;;
28760;SDS011;15917;50.014;8.352;2023-07-28T09:34:10;3.35;;;0.60;;
28760;SDS011;15917;50.014;8.352;2023-07-28T09:36:36;0.65;;;0.60;;
28760;SDS011;15917;50.014;8.352;2023-07-28T09:39:04;0.85;;;0.68;;
28760;SDS011;15917;50.014;8.352;2023-07-28T09:41:36;2.25;;;0.65;;
28760;SDS011;15917;50.014;8.352;2023-07-28T09:44:03;1.42;;;0.70;;
28760;SDS011;15917;50.014;8.352;2023-07-28T09:46:30;0.85;;;0.68;;
28760;SDS011;15917;50.014;8.352;2023-07-28T09:48:59;1.25;;;0.52;;
28760;SDS011;15917;50.014;8.352;2023-07-28T09:51:30;4.80;;;0.63;;
28760;SDS011;15917;50.014;8.352;2023-07-28T09:54:05;1.30;;;0.50;;
28760;SDS011;15917;50.014;8.352;2023-07-28T09:56:36;1.40;;;0.57;;
28760;SDS011;15917;50.014;8.352;2023-07-28T09:59:04;1.75;;;0.65;;
28760;SDS011;15917;50.014;8.352;2023-07-28T10:01:35;2.92;;;0.60;;
28760;SDS011;15917;50.014;8.352;2023-07-28T10:04:01;2.40;;;0.57;;
28760;SDS011;15917;50.014;8.352;2023-07-28T10:06:27;0.63;;;0.40;;
28760;SDS011;15917;50.014;8.352;2023-07-28T10:08:55;5.63;;;0.47;;
28760;SDS011;15917;50.014;8.352;2023-07-28T10:11:20;0.70;;;0.50;;
28760;SDS011;15917;50.014;8.352;2023-07-28T10:13:47;0.60;;;0.60;;
28760;SDS011;15917;50.014;8.352;2023-07-28T10:16:12;0.50;;;0.50;;
28760;SDS011;15917;50.014;8.352;2023-07-28T10:18:41;0.65;;;0.63;;
28760;SDS011;15917;50.014;8.352;2023-07-28T10:21:16;1.85;;;0.65;;
28760;SDS011;15917;50.014;8.352;2023-07-28T10:23:42;1.80;;;0.70;;
28760;SDS011;15917;50.014;8.352;2023-07-28T10:26:09;8.10;;;1.10;;
28760;SDS011;15917;50.014;8.352;2023-07-28T10:28:38;2.58;;;0.95;;
28760;SDS011;15917;50.014;8.352;2023-07-28T10:31:07;3.13;;;0.80;;
28760;SDS011;15917;50.014;8.352;2023-07-28T10:36:53;0.52;;;0.40;;
28760;SDS011;15917;50.014;8.352;2023-07-28T10:39:01;1.10;;;0.40;;
28760;SDS011;15917;50.014;8.352;2023-07-28T10:41:30;4.75;;;0.60;;
28760;SDS011;15917;50.014;8.352;2023-07-28T10:43:55;1.55;;;0.50;;
28760;SDS011;15917;50.014;8.352;2023-07-28T10:46:21;0.95;;;0.70;;
28760;SDS011;15917;50.014;8.352;2023-07-28T10:48:48;1.13;;;0.70;;
28760;SDS011;15917;50.014;8.352;2023-07-28T10:51:24;7.68;;;0.70;;
28760;SDS011;15917;50.014;8.352;2023-07-28T10:53:56;3.20;;;0.47;;
28760;SDS011;15917;50.014;8.352;2023-07-28T10:56:22;0.93;;;0.65;;
28760;SDS011;15917;50.014;8.352;2023-07-28T10:59:03;1.83;;;0.50;;
28760;SDS011;15917;50.014;8.352;2023-07-28T11:01:35;3.65;;;0.57;;
28760;SDS011;15917;50.014;8.352;2023-07-28T11:04:17;0.80;;;0.75;;
28760;SDS011;15917;50.014;8.352;2023-07-28T11:06:45;1.92;;;0.43;;
28760;SDS011;15917;50.014;8.352;2023-07-28T11:09:12;1.90;;;0.50;;
28760;SDS011;15917;50.014;8.352;2023-07-28T11:11:39;0.60;;;0.60;;
28760;SDS011;15917;50.014;8.352;2023-07-28T11:14:07;5.40;;;0.70;;
28760;SDS011;15917;50.014;8.352;2023-07-28T11:16:34;1.45;;;0.90;;
28760;SDS011;15917;50.014;8.352;2023-07-28T11:19:06;2.17;;;1.00;;
28760;SDS011;15917;50.014;8.352;2023-07-28T11:21:38;0.90;;;0.70;;
28760;SDS011;15917;50.014;8.352;2023-07-28T11:24:09;1.75;;;0.80;;
28760;SDS011;15917;50.014;8.352;2023-07-28T11:26:36;2.38;;;1.00;;
28760;SDS011;15917;50.014;8.352;2023-07-28T11:29:03;2.78;;;1.00;;
28760;SDS011;15917;50.014;8.352;2023-07-28T11:31:29;2.67;;;1.25;;
28760;SDS011;15917;50.014;8.352;2023-07-28T11:33:55;3.22;;;1.20;;
28760;SDS011;15917;50.014;8.352;2023-07-28T11:36:24;2.15;;;1.30;;
28760;SDS011;15917;50.014;8.352;2023-07-28T11:38:51;2.92;;;1.40;;
28760;SDS011;15917;50.014;8.352;2023-07-28T11:41:18;6.25;;;1.30;;
28760;SDS011;15917;50.014;8.352;2023-07-28T11:43:47;2.45;;;1.15;;
28760;SDS011;15917;50.014;8.352;2023-07-28T11:51:37;2.85;;;1.60;;
28760;SDS011;15917;50.014;8.352;2023-07-28T11:54:04;2.38;;;1.50;;
28760;SDS011;15917;50.014;8.352;2023-07-28T11:56:31;3.30;;;1.40;;
28760;SDS011;15917;50.014;8.352;2023-07-28T11:58:57;2.33;;;1.55;;
28760;SDS011;15917;50.014;8.352;2023-07-28T12:01:23;1.42;;;1.33;;
28760;SDS011;15917;50.014;8.352;2023-07-28T12:03:49;5.85;;;1.70;;
28760;SDS011;15917;50.014;8.352;2023-07-28T12:06:15;1.95;;;1.80;;
28760;SDS011;15917;50.014;8.352;2023-07-28T12:08:40;3.95;;;1.85;;
28760;SDS011;15917;50.014;8.352;2023-07-28T12:11:11;2.28;;;2.08;;
28760;SDS011;15917;50.014;8.352;2023-07-28T12:13:50;2.78;;;1.92;;
28760;SDS011;15917;50.014;8.352;2023-07-28T12:16:37;2.97;;;2.50;;
28760;SDS011;15917;50.014;8.352;2023-07-28T12:19:05;2.55;;;2.15;;
28760;SDS011;15917;50.014;8.352;2023-07-28T12:21:30;2.45;;;2.25;;
28760;SDS011;15917;50.014;8.352;2023-07-28T12:23:56;4.53;;;2.90;;
28760;SDS011;15917;50.014;8.352;2023-07-28T12:26:22;4.20;;;3.25;;
28760;SDS011;15917;50.014;8.352;2023-07-28T12:28:47;6.00;;;3.25;;
28760;SDS011;15917;50.014;8.352;2023-07-28T12:31:13;6.93;;;3.35;;
28760;SDS011;15917;50.014;8.352;2023-07-28T12:33:39;6.40;;;3.40;;
28760;SDS011;15917;50.014;8.352;2023-07-28T12:36:04;5.97;;;3.38;;
28760;SDS011;15917;50.014;8.352;2023-07-28T12:38:31;7.07;;;3.63;;
28760;SDS011;15917;50.014;8.352;2023-07-28T12:40:57;5.75;;;3.50;;
28760;SDS011;15917;50.014;8.352;2023-07-28T12:43:22;10.75;;;3.58;;
28760;SDS011;15917;50.014;8.352;2023-07-28T12:45:50;4.68;;;2.95;;
28760;SDS011;15917;50.014;8.352;2023-07-28T12:48:15;3.67;;;2.00;;
28760;SDS011;15917;50.014;8.352;2023-07-28T12:50:41;2.25;;;2.00;;
28760;SDS011;15917;50.014;8.352;2023-07-28T12:53:06;2.40;;;1.80;;
28760;SDS011;15917;50.014;8.352;2023-07-28T12:55:32;2.38;;;2.03;;
28760;SDS011;15917;50.014;8.352;2023-07-28T12:58:00;4.05;;;2.10;;
28760;SDS011;15917;50.014;8.352;2023-07-28T13:00:25;2.85;;;2.03;;
28760;SDS011;15917;50.014;8.352;2023-07-28T13:02:51;5.63;;;2.53;;
28760;SDS011;15917;50.014;8.352;2023-07-28T13:05:16;3.67;;;2.28;;
28760;SDS011;15917;50.014;8.352;2023-07-28T13:07:42;4.57;;;2.60;;
28760;SDS011;15917;50.014;8.352;2023-07-28T13:10:08;3.15;;;2.40;;
28760;SDS011;15917;50.014;8.352;2023-07-28T13:12:36;9.63;;;2.40;;
28760;SDS011;15917;50.014;8.352;2023-07-28T13:15:02;5.32;;;2.20;;
28760;SDS011;15917;50.014;8.352;2023-07-28T13:17:28;2.33;;;1.80;;
28760;SDS011;15917;50.014;8.352;2023-07-28T13:19:53;2.70;;;1.95;;
28760;SDS011;15917;50.014;8.352;2023-07-28T13:22:19;2.60;;;1.83;;
28760;SDS011;15917;50.014;8.352;2023-07-28T13:24:44;4.88;;;2.45;;
28760;SDS011;15917;50.014;8.352;2023-07-28T13:27:10;4.95;;;2.78;;
28760;SDS011;15917;50.014;8.352;2023-07-28T13:29:36;4.05;;;2.47;;
28760;SDS011;15917;50.014;8.352;2023-07-28T13:32:01;3.05;;;2.60;;
28760;SDS011;15917;50.014;8.352;2023-07-28T13:34:27;3.58;;;2.22;;
28760;SDS011;15917;50.014;8.352;2023-07-28T13:36:53;8.20;;;1.95;;
28760;SDS011;15917;50.014;8.352;2023-07-28T13:39:20;1.95;;;1.42;;
28760;SDS011;15917;50.014;8.352;2023-07-28T13:41:46;1.30;;;1.20;;
28760;SDS011;15917;50.014;8.352;2023-07-28T13:44:11;1.23;;;1.13;;
28760;SDS011;15917;50.014;8.352;2023-07-28T13:46:37;1.17;;;0.95;;
28760;SDS011;15917;50.014;8.352;2023-07-28T13:49:03;2.40;;;1.27;;
28760;SDS011;15917;50.014;8.352;2023-07-28T13:51:28;4.07;;;1.30;;
28760;SDS011;15917;50.014;8.352;2023-07-28T13:53:54;3.83;;;1.27;;
28760;SDS011;15917;50.014;8.352;2023-07-28T13:56:20;1.48;;;1.20;;
28760;SDS011;15917;50.014;8.352;2023-07-28T13:58:45;1.27;;;1.17;;
28760;SDS011;15917;50.014;8.352;2023-07-28T14:01:11;5.30;;;1.10;;
28760;SDS011;15917;50.014;8.352;2023-07-28T14:03:36;1.95;;;1.67;;
28760;SDS011;15917;50.014;8.352;2023-07-28T14:06:02;1.80;;;1.50;;
28760;SDS011;15917;50.014;8.352;2023-07-28T14:08:28;2.28;;;1.88;;
28760;SDS011;15917;50.014;8.352;2023-07-28T14:10:53;4.25;;;2.00;;
28760;SDS011;15917;50.014;8.352;2023-07-28T14:13:20;2.78;;;2.00;;
28760;SDS011;15917;50.014;8.352;2023-07-28T14:15:46;2.60;;;1.85;;
28760;SDS011;15917;50.014;8.352;2023-07-28T14:18:12;3.30;;;1.92;;
28760;SDS011;15917;50.014;8.352;2023-07-28T14:20:38;5.72;;;1.60;;
28760;SDS011;15917;50.014;8.352;2023-07-28T14:23:08;3.08;;;1.88;;
28760;SDS011;15917;50.014;8.352;2023-07-28T14:25:49;2.30;;;1.80;;
28760;SDS011;15917;50.014;8.352;2023-07-28T14:28:14;2.15;;;1.50;;
28760;SDS011;15917;50.014;8.352;2023-07-28T14:30:40;23.85;;;2.95;;
28760;SDS011;15917;50.014;8.352;2023-07-28T14:33:11;3.33;;;2.05;;
28760;SDS011;15917;50.014;8.352;2023-07-28T14:35:40;5.03;;;1.35;;
28760;SDS011;15917;50.014;8.352;2023-07-28T14:38:06;1.38;;;1.20;;
28760;SDS011;15917;50.014;8.352;2023-07-28T14:40:31;1.67;;;1.58;;
28760;SDS011;15917;50.014;8.352;2023-07-28T14:42:57;3.35;;;1.67;;
28760;SDS011;15917;50.014;8.352;2023-07-28T14:45:23;5.45;;;1.70;;
28760;SDS011;15917;50.014;8.352;2023-07-28T14:47:48;1.60;;;1.40;;
28760;SDS011;15917;50.014;8.352;2023-07-28T14:50:14;2.72;;;1.88;;
28760;SDS011;15917;50.014;8.352;2023-07-28T14:52:39;1.70;;;1.52;;
28760;SDS011;15917;50.014;8.352;2023-07-28T14:55:05;2.28;;;1.48;;
28760;SDS011;15917;50.014;8.352;2023-07-28T14:57:31;3.40;;;1.75;;
28760;SDS011;15917;50.014;8.352;2023-07-28T14:59:56;2.83;;;1.65;;
28760;SDS011;15917;50.014;8.352;2023-07-28T15:02:22;3.42;;;2.67;;